sensor_id;sensor_type;location;lat;lon;timestamp;temperature;humidity
14471;DHT22;7321;50.802;4.336;2024-03-23T00:56:12;9.50;99.90
14471;DHT22;7321;50.802;4.336;2024-03-23T00:58:37;9.60;99.90
14471;DHT22;7321;50.802;4.336;2024-03-23T01:01:06;9.70;99.90
14471;DHT22;7321;50.802;4.336;2024-03-23T01:03:35;9.80;99.90
14471;DHT22;7321;50.802;4.336;2024-03-23T01:06:01;9.90;99.90
14471;DHT22;7321;50.802;4.336;2024-03-23T01:08:31;9.90;99.90
14471;DHT22;7321;50.802;4.336;2024-03-23T01:11:00;9.90;99.90
14471;DHT22;7321;50.802;4.336;2024-03-23T01:13:29;9.80;99.90
14471;DHT22;7321;50.802;4.336;2024-03-23T01:15:56;10.00;99.90
14471;DHT22;7321;50.802;4.336;2024-03-23T01:18:31;10.00;99.90
14471;DHT22;7321;50.802;4.336;2024-03-23T01:20:58;10.10;99.90
14471;DHT22;7321;50.802;4.336;2024-03-23T01:23:24;10.00;99.90
14471;DHT22;7321;50.802;4.336;2024-03-23T01:25:54;10.10;99.90
14471;DHT22;7321;50.802;4.336;2024-03-23T01:28:21;10.10;99.90
14471;DHT22;7321;50.802;4.336;2024-03-23T01:30:47;10.00;99.90
14471;DHT22;7321;50.802;4.336;2024-03-23T01:33:13;9.90;99.90
14471;DHT22;7321;50.802;4.336;2024-03-23T01:35:39;9.70;99.90
14471;DHT22;7321;50.802;4.336;2024-03-23T01:38:08;9.80;99.90
14471;DHT22;7321;50.802;4.336;2024-03-23T01:40:34;9.80;99.90
14471;DHT22;7321;50.802;4.336;2024-03-23T01:43:05;9.90;99.90
14471;DHT22;7321;50.802;4.336;2024-03-23T01:45:36;9.80;99.90
14471;DHT22;7321;50.802;4.336;2024-03-23T01:48:03;9.80;99.90
14471;DHT22;7321;50.802;4.336;2024-03-23T01:50:31;9.60;99.90
14471;DHT22;7321;50.802;4.336;2024-03-23T01:53:05;9.70;99.90
14471;DHT22;7321;50.802;4.336;2024-03-23T01:55:38;9.70;99.90
14471;DHT22;7321;50.802;4.336;2024-03-23T01:58:05;9.90;99.90
14471;DHT22;7321;50.802;4.336;2024-03-23T02:00:30;9.80;99.90
14471;DHT22;7321;50.802;4.336;2024-03-23T02:02:56;9.90;99.90
14471;DHT22;7321;50.802;4.336;2024-03-23T02:05:22;9.80;99.90
14471;DHT22;7321;50.802;4.336;2024-03-23T02:07:49;9.70;99.90
14471;DHT22;7321;50.802;4.336;2024-03-23T02:10:16;9.60;99.90
14471;DHT22;7321;50.802;4.336;2024-03-23T02:12:45;9.80;99.90
14471;DHT22;7321;50.802;4.336;2024-03-23T02:15:11;9.80;99.90
14471;DHT22;7321;50.802;4.336;2024-03-23T02:17:37;9.80;99.90
14471;DHT22;7321;50.802;4.336;2024-03-23T02:20:03;9.80;99.90
14471;DHT22;7321;50.802;4.336;2024-03-23T02:22:38;9.70;99.90
14471;DHT22;7321;50.802;4.336;2024-03-23T02:25:05;9.70;99.90
14471;DHT22;7321;50.802;4.336;2024-03-23T02:27:31;9.70;99.90
14471;DHT22;7321;50.802;4.336;2024-03-23T02:29:58;9.70;99.90
14471;DHT22;7321;50.802;4.336;2024-03-23T02:32:24;9.60;99.90
14471;DHT22;7321;50.802;4.336;2024-03-23T02:34:50;9.60;99.90
14471;DHT22;7321;50.802;4.336;2024-03-23T02:37:16;9.50;99.90
14471;DHT22;7321;50.802;4.336;2024-03-23T02:39:45;9.60;99.90
14471;DHT22;7321;50.802;4.336;2024-03-23T02:42:14;9.70;99.90
14471;DHT22;7321;50.802;4.336;2024-03-23T02:44:44;9.80;99.90
14471;DHT22;7321;50.802;4.336;2024-03-23T02:47:10;9.80;99.90
14471;DHT22;7321;50.802;4.336;2024-03-23T02:49:36;9.70;99.90
14471;DHT22;7321;50.802;4.336;2024-03-23T02:52:01;9.60;99.90
14471;DHT22;7321;50.802;4.336;2024-03-23T02:54:27;9.80;99.90
14471;DHT22;7321;50.802;4.336;2024-03-23T02:56:53;9.80;99.90
14471;DHT22;7321;50.802;4.336;2024-03-23T02:59:19;9.80;99.90
14471;DHT22;7321;50.802;4.336;2024-03-23T03:01:45;9.80;99.90
14471;DHT22;7321;50.802;4.336;2024-03-23T03:04:11;9.90;99.90
14471;DHT22;7321;50.802;4.336;2024-03-23T03:06:37;9.90;99.90
14471;DHT22;7321;50.802;4.336;2024-03-23T03:09:03;9.90;99.90
14471;DHT22;7321;50.802;4.336;2024-03-23T03:11:28;9.90;99.90
14471;DHT22;7321;50.802;4.336;2024-03-23T03:13:54;9.90;99.90
14471;DHT22;7321;50.802;4.336;2024-03-23T03:16:26;9.80;99.90
14471;DHT22;7321;50.802;4.336;2024-03-23T03:18:52;9.80;99.90
14471;DHT22;7321;50.802;4.336;2024-03-23T03:21:18;9.80;99.90
14471;DHT22;7321;50.802;4.336;2024-03-23T03:23:44;9.80;99.90
14471;DHT22;7321;50.802;4.336;2024-03-23T03:26:10;9.60;99.90
14471;DHT22;7321;50.802;4.336;2024-03-23T03:28:36;9.50;99.90
14471;DHT22;7321;50.802;4.336;2024-03-23T03:31:02;9.60;99.90
14471;DHT22;7321;50.802;4.336;2024-03-23T03:33:28;9.50;99.90
14471;DHT22;7321;50.802;4.336;2024-03-23T03:35:54;9.40;99.90
14471;DHT22;7321;50.802;4.336;2024-03-23T03:38:21;9.50;99.90
14471;DHT22;7321;50.802;4.336;2024-03-23T03:40:47;9.60;99.90
14471;DHT22;7321;50.802;4.336;2024-03-23T03:43:13;9.60;99.90
14471;DHT22;7321;50.802;4.336;2024-03-23T03:45:39;9.60;99.90
14471;DHT22;7321;50.802;4.336;2024-03-23T03:48:05;9.60;99.90
14471;DHT22;7321;50.802;4.336;2024-03-23T03:50:31;9.50;99.90
14471;DHT22;7321;50.802;4.336;2024-03-23T03:52:57;9.40;99.90
14471;DHT22;7321;50.802;4.336;2024-03-23T03:55:23;9.40;99.90
14471;DHT22;7321;50.802;4.336;2024-03-23T03:57:48;9.40;99.90
14471;DHT22;7321;50.802;4.336;2024-03-23T04:00:14;9.50;99.90
14471;DHT22;7321;50.802;4.336;2024-03-23T04:02:41;9.10;99.90
14471;DHT22;7321;50.802;4.336;2024-03-23T04:05:07;9.00;99.90
14471;DHT22;7321;50.802;4.336;2024-03-23T04:07:33;9.00;99.90
14471;DHT22;7321;50.802;4.336;2024-03-23T04:09:59;9.20;99.90
14471;DHT22;7321;50.802;4.336;2024-03-23T04:12:25;9.10;99.90
14471;DHT22;7321;50.802;4.336;2024-03-23T04:14:51;9.10;99.90
14471;DHT22;7321;50.802;4.336;2024-03-23T04:17:17;9.10;99.90
14471;DHT22;7321;50.802;4.336;2024-03-23T04:19:44;9.10;99.90
14471;DHT22;7321;50.802;4.336;2024-03-23T04:22:10;8.80;99.90
14471;DHT22;7321;50.802;4.336;2024-03-23T04:24:36;8.90;99.90
14471;DHT22;7321;50.802;4.336;2024-03-23T04:27:02;9.00;99.90
14471;DHT22;7321;50.802;4.336;2024-03-23T04:29:28;9.10;99.90
14471;DHT22;7321;50.802;4.336;2024-03-23T04:31:54;9.00;99.90
14471;DHT22;7321;50.802;4.336;2024-03-23T04:34:21;9.10;99.90
14471;DHT22;7321;50.802;4.336;2024-03-23T04:36:48;9.10;99.90
14471;DHT22;7321;50.802;4.336;2024-03-23T04:39:14;9.10;99.90
14471;DHT22;7321;50.802;4.336;2024-03-23T04:41:39;9.00;99.90
14471;DHT22;7321;50.802;4.336;2024-03-23T04:44:06;8.90;99.90
14471;DHT22;7321;50.802;4.336;2024-03-23T04:46:32;8.80;99.90
14471;DHT22;7321;50.802;4.336;2024-03-23T04:48:57;8.90;99.90
14471;DHT22;7321;50.802;4.336;2024-03-23T04:51:23;8.90;99.90
14471;DHT22;7321;50.802;4.336;2024-03-23T04:53:49;8.80;99.90
14471;DHT22;7321;50.802;4.336;2024-03-23T04:56:16;8.60;99.90
14471;DHT22;7321;50.802;4.336;2024-03-23T04:58:43;8.50;99.90
14471;DHT22;7321;50.802;4.336;2024-03-23T05:01:10;8.30;99.90
14471;DHT22;7321;50.802;4.336;2024-03-23T05:03:36;8.40;99.90
14471;DHT22;7321;50.802;4.336;2024-03-23T05:06:02;8.30;99.90
14471;DHT22;7321;50.802;4.336;2024-03-23T05:08:27;8.20;99.90
14471;DHT22;7321;50.802;4.336;2024-03-23T05:10:53;8.30;99.90
14471;DHT22;7321;50.802;4.336;2024-03-23T05:13:19;8.20;99.90
14471;DHT22;7321;50.802;4.336;2024-03-23T05:15:53;8.40;99.90
14471;DHT22;7321;50.802;4.336;2024-03-23T05:18:20;8.50;99.90
14471;DHT22;7321;50.802;4.336;2024-03-23T05:20:46;8.40;99.90
14471;DHT22;7321;50.802;4.336;2024-03-23T05:23:11;8.50;99.90
14471;DHT22;7321;50.802;4.336;2024-03-23T05:25:37;8.50;99.90
14471;DHT22;7321;50.802;4.336;2024-03-23T05:28:03;8.50;99.90
14471;DHT22;7321;50.802;4.336;2024-03-23T05:30:29;8.50;99.90
14471;DHT22;7321;50.802;4.336;2024-03-23T05:32:55;8.40;99.90
14471;DHT22;7321;50.802;4.336;2024-03-23T05:35:21;8.40;99.90
14471;DHT22;7321;50.802;4.336;2024-03-23T05:37:46;8.40;99.90
14471;DHT22;7321;50.802;4.336;2024-03-23T05:40:12;8.40;99.90
14471;DHT22;7321;50.802;4.336;2024-03-23T05:42:41;8.30;99.90
14471;DHT22;7321;50.802;4.336;2024-03-23T05:45:07;8.30;99.90
14471;DHT22;7321;50.802;4.336;2024-03-23T05:47:33;8.50;99.90
14471;DHT22;7321;50.802;4.336;2024-03-23T05:49:59;8.60;99.90
14471;DHT22;7321;50.802;4.336;2024-03-23T05:52:25;8.60;99.90
14471;DHT22;7321;50.802;4.336;2024-03-23T05:54:52;8.50;99.90
14471;DHT22;7321;50.802;4.336;2024-03-23T05:57:18;8.30;99.90
14471;DHT22;7321;50.802;4.336;2024-03-23T05:59:45;8.10;99.90
14471;DHT22;7321;50.802;4.336;2024-03-23T06:02:11;8.10;99.90
14471;DHT22;7321;50.802;4.336;2024-03-23T06:04:37;8.00;99.90
14471;DHT22;7321;50.802;4.336;2024-03-23T06:07:03;8.10;99.90
14471;DHT22;7321;50.802;4.336;2024-03-23T06:09:31;8.30;99.90
14471;DHT22;7321;50.802;4.336;2024-03-23T06:11:57;8.20;99.90
14471;DHT22;7321;50.802;4.336;2024-03-23T06:14:23;8.30;99.90
14471;DHT22;7321;50.802;4.336;2024-03-23T06:16:49;8.20;99.90
14471;DHT22;7321;50.802;4.336;2024-03-23T06:19:15;8.30;99.90
14471;DHT22;7321;50.802;4.336;2024-03-23T06:21:44;8.30;99.90
14471;DHT22;7321;50.802;4.336;2024-03-23T06:24:11;8.30;99.90
14471;DHT22;7321;50.802;4.336;2024-03-23T06:26:37;8.20;99.90
14471;DHT22;7321;50.802;4.336;2024-03-23T06:29:03;8.40;99.90
14471;DHT22;7321;50.802;4.336;2024-03-23T06:31:31;8.50;99.90
14471;DHT22;7321;50.802;4.336;2024-03-23T06:33:57;8.60;99.90
14471;DHT22;7321;50.802;4.336;2024-03-23T06:36:22;8.50;99.90
14471;DHT22;7321;50.802;4.336;2024-03-23T06:38:48;8.50;99.90
14471;DHT22;7321;50.802;4.336;2024-03-23T06:41:15;8.50;99.90
14471;DHT22;7321;50.802;4.336;2024-03-23T06:43:40;8.50;99.90
14471;DHT22;7321;50.802;4.336;2024-03-23T06:46:06;8.50;99.90
14471;DHT22;7321;50.802;4.336;2024-03-23T06:48:32;8.40;99.90
14471;DHT22;7321;50.802;4.336;2024-03-23T06:50:58;8.20;99.90
14471;DHT22;7321;50.802;4.336;2024-03-23T06:53:24;7.90;99.90
14471;DHT22;7321;50.802;4.336;2024-03-23T06:55:52;7.90;99.90
14471;DHT22;7321;50.802;4.336;2024-03-23T06:58:19;8.00;99.90
14471;DHT22;7321;50.802;4.336;2024-03-23T07:00:45;8.00;99.90
14471;DHT22;7321;50.802;4.336;2024-03-23T07:03:12;8.00;99.90
14471;DHT22;7321;50.802;4.336;2024-03-23T07:05:38;8.10;99.90
14471;DHT22;7321;50.802;4.336;2024-03-23T07:08:04;8.10;99.90
14471;DHT22;7321;50.802;4.336;2024-03-23T07:10:30;8.00;99.90
14471;DHT22;7321;50.802;4.336;2024-03-23T07:12:56;7.90;99.90
14471;DHT22;7321;50.802;4.336;2024-03-23T07:15:22;7.90;99.90
14471;DHT22;7321;50.802;4.336;2024-03-23T07:17:48;7.90;99.90
14471;DHT22;7321;50.802;4.336;2024-03-23T07:20:14;7.90;99.90
14471;DHT22;7321;50.802;4.336;2024-03-23T07:22:40;7.90;99.90
14471;DHT22;7321;50.802;4.336;2024-03-23T07:25:06;8.00;99.90
14471;DHT22;7321;50.802;4.336;2024-03-23T07:27:32;7.90;99.90
14471;DHT22;7321;50.802;4.336;2024-03-23T07:29:59;7.60;99.90
14471;DHT22;7321;50.802;4.336;2024-03-23T07:32:26;7.60;99.90
14471;DHT22;7321;50.802;4.336;2024-03-23T07:34:52;7.80;99.90
14471;DHT22;7321;50.802;4.336;2024-03-23T07:37:18;7.70;99.90
14471;DHT22;7321;50.802;4.336;2024-03-23T07:39:45;7.70;99.90
14471;DHT22;7321;50.802;4.336;2024-03-23T07:42:10;7.70;99.90
14471;DHT22;7321;50.802;4.336;2024-03-23T07:44:36;7.90;99.90
14471;DHT22;7321;50.802;4.336;2024-03-23T07:47:03;7.80;99.90
14471;DHT22;7321;50.802;4.336;2024-03-23T07:49:29;7.90;99.90
14471;DHT22;7321;50.802;4.336;2024-03-23T07:51:55;8.00;99.90
14471;DHT22;7321;50.802;4.336;2024-03-23T07:54:21;8.30;99.90
14471;DHT22;7321;50.802;4.336;2024-03-23T07:56:47;8.60;99.90
14471;DHT22;7321;50.802;4.336;2024-03-23T07:59:12;8.50;99.90
14471;DHT22;7321;50.802;4.336;2024-03-23T08:01:38;8.40;99.90
14471;DHT22;7321;50.802;4.336;2024-03-23T08:04:05;8.40;99.90
14471;DHT22;7321;50.802;4.336;2024-03-23T08:06:31;8.30;99.90
14471;DHT22;7321;50.802;4.336;2024-03-23T08:08:58;8.50;99.90
14471;DHT22;7321;50.802;4.336;2024-03-23T08:11:29;8.60;99.90
14471;DHT22;7321;50.802;4.336;2024-03-23T08:13:56;8.50;99.90
14471;DHT22;7321;50.802;4.336;2024-03-23T08:16:22;8.50;99.90
14471;DHT22;7321;50.802;4.336;2024-03-23T08:18:51;8.40;99.90
14471;DHT22;7321;50.802;4.336;2024-03-23T08:21:18;8.40;99.90
14471;DHT22;7321;50.802;4.336;2024-03-23T08:23:44;8.50;99.90
14471;DHT22;7321;50.802;4.336;2024-03-23T08:26:12;8.50;99.90
14471;DHT22;7321;50.802;4.336;2024-03-23T08:28:39;8.50;99.90
14471;DHT22;7321;50.802;4.336;2024-03-23T08:31:09;8.60;99.90
14471;DHT22;7321;50.802;4.336;2024-03-23T08:33:36;8.70;99.90
14471;DHT22;7321;50.802;4.336;2024-03-23T08:36:03;8.50;99.90
14471;DHT22;7321;50.802;4.336;2024-03-23T08:38:29;8.60;99.90
14471;DHT22;7321;50.802;4.336;2024-03-23T08:40:59;8.60;99.90
14471;DHT22;7321;50.802;4.336;2024-03-23T08:43:30;8.70;99.90
14471;DHT22;7321;50.802;4.336;2024-03-23T08:46:12;8.80;99.90
14471;DHT22;7321;50.802;4.336;2024-03-23T08:48:40;9.00;99.90
14471;DHT22;7321;50.802;4.336;2024-03-23T08:51:07;9.00;99.90
14471;DHT22;7321;50.802;4.336;2024-03-23T08:53:35;8.90;99.90
14471;DHT22;7321;50.802;4.336;2024-03-23T08:56:02;8.70;99.90
14471;DHT22;7321;50.802;4.336;2024-03-23T08:58:29;8.50;99.90
14471;DHT22;7321;50.802;4.336;2024-03-23T09:00:57;8.60;99.90
14471;DHT22;7321;50.802;4.336;2024-03-23T09:03:26;8.60;99.90
14471;DHT22;7321;50.802;4.336;2024-03-23T09:05:52;8.80;99.90
14471;DHT22;7321;50.802;4.336;2024-03-23T09:08:21;8.70;99.90
14471;DHT22;7321;50.802;4.336;2024-03-23T09:10:51;8.80;99.90
14471;DHT22;7321;50.802;4.336;2024-03-23T09:13:17;9.00;99.90
14471;DHT22;7321;50.802;4.336;2024-03-23T09:15:52;9.10;99.90
14471;DHT22;7321;50.802;4.336;2024-03-23T09:18:22;9.20;99.90
14471;DHT22;7321;50.802;4.336;2024-03-23T09:20:48;9.00;99.90
14471;DHT22;7321;50.802;4.336;2024-03-23T09:23:14;9.00;99.90
14471;DHT22;7321;50.802;4.336;2024-03-23T09:25:40;9.10;99.90
14471;DHT22;7321;50.802;4.336;2024-03-23T09:28:06;9.10;99.90
14471;DHT22;7321;50.802;4.336;2024-03-23T09:30:34;9.00;99.90
14471;DHT22;7321;50.802;4.336;2024-03-23T09:33:00;9.00;99.90
14471;DHT22;7321;50.802;4.336;2024-03-23T09:35:27;9.10;99.90
14471;DHT22;7321;50.802;4.336;2024-03-23T09:37:55;8.90;99.90
14471;DHT22;7321;50.802;4.336;2024-03-23T09:40:23;8.80;99.90
14471;DHT22;7321;50.802;4.336;2024-03-23T09:42:51;8.80;99.90
14471;DHT22;7321;50.802;4.336;2024-03-23T09:45:21;8.70;99.90
14471;DHT22;7321;50.802;4.336;2024-03-23T09:47:48;8.70;99.90
14471;DHT22;7321;50.802;4.336;2024-03-23T09:50:14;8.80;99.90
14471;DHT22;7321;50.802;4.336;2024-03-23T09:52:40;8.80;99.90
14471;DHT22;7321;50.802;4.336;2024-03-23T09:55:08;8.80;99.90
14471;DHT22;7321;50.802;4.336;2024-03-23T09:57:35;9.20;99.90
14471;DHT22;7321;50.802;4.336;2024-03-23T10:00:02;9.50;99.90
14471;DHT22;7321;50.802;4.336;2024-03-23T10:02:29;9.80;99.90
14471;DHT22;7321;50.802;4.336;2024-03-23T10:04:54;9.70;99.90
14471;DHT22;7321;50.802;4.336;2024-03-23T10:07:21;9.40;99.90
14471;DHT22;7321;50.802;4.336;2024-03-23T10:09:50;9.20;99.90
14471;DHT22;7321;50.802;4.336;2024-03-23T10:12:24;9.40;99.90
14471;DHT22;7321;50.802;4.336;2024-03-23T10:14:53;9.30;99.90
14471;DHT22;7321;50.802;4.336;2024-03-23T10:17:21;9.20;99.90
14471;DHT22;7321;50.802;4.336;2024-03-23T10:19:52;8.90;99.90
14471;DHT22;7321;50.802;4.336;2024-03-23T10:22:22;8.80;99.90
14471;DHT22;7321;50.802;4.336;2024-03-23T10:24:49;8.80;99.90
14471;DHT22;7321;50.802;4.336;2024-03-23T10:27:19;8.80;99.90
14471;DHT22;7321;50.802;4.336;2024-03-23T10:29:49;9.00;99.90
14471;DHT22;7321;50.802;4.336;2024-03-23T10:32:17;9.00;99.90
14471;DHT22;7321;50.802;4.336;2024-03-23T10:34:43;8.90;99.90
14471;DHT22;7321;50.802;4.336;2024-03-23T10:37:12;9.00;99.90
14471;DHT22;7321;50.802;4.336;2024-03-23T10:39:40;8.90;99.90
14471;DHT22;7321;50.802;4.336;2024-03-23T10:42:09;8.80;99.90
14471;DHT22;7321;50.802;4.336;2024-03-23T10:44:37;8.90;99.90
14471;DHT22;7321;50.802;4.336;2024-03-23T10:47:04;9.10;99.90
14471;DHT22;7321;50.802;4.336;2024-03-23T10:49:43;9.40;99.90
14471;DHT22;7321;50.802;4.336;2024-03-23T10:52:09;9.40;99.90
14471;DHT22;7321;50.802;4.336;2024-03-23T10:54:35;9.50;99.90
14471;DHT22;7321;50.802;4.336;2024-03-23T10:57:40;9.50;99.90
14471;DHT22;7321;50.802;4.336;2024-03-23T11:00:08;9.50;99.90
14471;DHT22;7321;50.802;4.336;2024-03-23T11:02:34;9.50;99.90
14471;DHT22;7321;50.802;4.336;2024-03-23T11:05:00;9.60;99.90
14471;DHT22;7321;50.802;4.336;2024-03-23T11:07:30;9.60;99.90
14471;DHT22;7321;50.802;4.336;2024-03-23T11:10:00;9.60;99.90
14471;DHT22;7321;50.802;4.336;2024-03-23T11:12:29;9.50;99.90
14471;DHT22;7321;50.802;4.336;2024-03-23T11:15:14;9.20;99.90
14471;DHT22;7321;50.802;4.336;2024-03-23T11:18:05;9.20;99.90
14471;DHT22;7321;50.802;4.336;2024-03-23T11:20:34;9.00;99.90
14471;DHT22;7321;50.802;4.336;2024-03-23T11:23:04;9.20;99.90
14471;DHT22;7321;50.802;4.336;2024-03-23T11:25:30;9.10;99.90
14471;DHT22;7321;50.802;4.336;2024-03-23T11:28:21;9.30;99.90
14471;DHT22;7321;50.802;4.336;2024-03-23T11:30:53;9.30;99.90
14471;DHT22;7321;50.802;4.336;2024-03-23T11:33:19;9.30;99.90
14471;DHT22;7321;50.802;4.336;2024-03-23T11:35:51;9.40;99.90
14471;DHT22;7321;50.802;4.336;2024-03-23T11:38:19;9.50;99.90
14471;DHT22;7321;50.802;4.336;2024-03-23T11:40:49;9.50;99.90
14471;DHT22;7321;50.802;4.336;2024-03-23T11:43:18;9.60;99.90
14471;DHT22;7321;50.802;4.336;2024-03-23T11:45:45;9.40;99.90
14471;DHT22;7321;50.802;4.336;2024-03-23T11:48:33;9.40;99.90
14471;DHT22;7321;50.802;4.336;2024-03-23T11:51:08;9.30;99.90
14471;DHT22;7321;50.802;4.336;2024-03-23T11:53:43;9.20;99.90
14471;DHT22;7321;50.802;4.336;2024-03-23T11:56:09;9.30;99.90
14471;DHT22;7321;50.802;4.336;2024-03-23T11:58:37;9.20;99.90
14471;DHT22;7321;50.802;4.336;2024-03-23T12:01:04;9.10;99.90
14471;DHT22;7321;50.802;4.336;2024-03-23T12:03:32;9.10;99.90
14471;DHT22;7321;50.802;4.336;2024-03-23T12:06:04;9.20;99.90
14471;DHT22;7321;50.802;4.336;2024-03-23T12:08:34;9.30;99.90
14471;DHT22;7321;50.802;4.336;2024-03-23T12:11:10;9.40;99.90
14471;DHT22;7321;50.802;4.336;2024-03-23T12:13:45;9.50;99.90
14471;DHT22;7321;50.802;4.336;2024-03-23T12:16:19;9.50;99.90
14471;DHT22;7321;50.802;4.336;2024-03-23T12:19:07;9.70;99.90
14471;DHT22;7321;50.802;4.336;2024-03-23T12:21:45;9.80;99.90
14471;DHT22;7321;50.802;4.336;2024-03-23T12:24:16;9.70;99.90
14471;DHT22;7321;50.802;4.336;2024-03-23T12:26:45;9.60;99.90
14471;DHT22;7321;50.802;4.336;2024-03-23T12:29:18;9.40;99.90
14471;DHT22;7321;50.802;4.336;2024-03-23T12:31:50;9.40;99.90
14471;DHT22;7321;50.802;4.336;2024-03-23T12:34:16;9.30;99.90
14471;DHT22;7321;50.802;4.336;2024-03-23T12:36:41;9.20;99.90
14471;DHT22;7321;50.802;4.336;2024-03-23T12:39:07;9.40;99.90
14471;DHT22;7321;50.802;4.336;2024-03-23T12:41:33;9.60;99.90
14471;DHT22;7321;50.802;4.336;2024-03-23T12:43:59;9.80;99.90
14471;DHT22;7321;50.802;4.336;2024-03-23T12:46:41;10.10;99.90
14471;DHT22;7321;50.802;4.336;2024-03-23T12:49:07;10.10;99.90
14471;DHT22;7321;50.802;4.336;2024-03-23T12:51:37;10.20;99.90
14471;DHT22;7321;50.802;4.336;2024-03-23T12:54:09;10.30;99.90
14471;DHT22;7321;50.802;4.336;2024-03-23T12:56:38;10.50;99.90
14471;DHT22;7321;50.802;4.336;2024-03-23T12:59:10;10.40;99.90
14471;DHT22;7321;50.802;4.336;2024-03-23T13:01:41;10.40;99.90
14471;DHT22;7321;50.802;4.336;2024-03-23T13:04:20;10.40;99.90
14471;DHT22;7321;50.802;4.336;2024-03-23T13:06:52;10.40;99.90
14471;DHT22;7321;50.802;4.336;2024-03-23T13:09:18;10.40;99.90
14471;DHT22;7321;50.802;4.336;2024-03-23T13:11:44;10.60;99.90
14471;DHT22;7321;50.802;4.336;2024-03-23T13:14:10;10.60;99.90
14471;DHT22;7321;50.802;4.336;2024-03-23T13:16:39;10.70;99.90
14471;DHT22;7321;50.802;4.336;2024-03-23T13:19:05;10.80;99.90
14471;DHT22;7321;50.802;4.336;2024-03-23T13:21:31;10.90;99.90
14471;DHT22;7321;50.802;4.336;2024-03-23T13:23:57;10.80;99.90
14471;DHT22;7321;50.802;4.336;2024-03-23T13:26:24;11.30;99.90
14471;DHT22;7321;50.802;4.336;2024-03-23T13:28:49;11.20;99.90
14471;DHT22;7321;50.802;4.336;2024-03-23T13:31:15;11.20;99.90
14471;DHT22;7321;50.802;4.336;2024-03-23T13:33:45;11.00;99.90
14471;DHT22;7321;50.802;4.336;2024-03-23T13:36:11;11.10;99.90
14471;DHT22;7321;50.802;4.336;2024-03-23T13:38:37;11.20;99.90
14471;DHT22;7321;50.802;4.336;2024-03-23T13:41:06;11.30;99.90
14471;DHT22;7321;50.802;4.336;2024-03-23T13:43:33;11.10;99.90
14471;DHT22;7321;50.802;4.336;2024-03-23T13:46:02;11.20;99.90
14471;DHT22;7321;50.802;4.336;2024-03-23T13:48:32;11.00;99.90
14471;DHT22;7321;50.802;4.336;2024-03-23T13:51:02;10.60;99.90
14471;DHT22;7321;50.802;4.336;2024-03-23T13:53:31;10.60;99.90
14471;DHT22;7321;50.802;4.336;2024-03-23T13:56:03;10.70;99.90
14471;DHT22;7321;50.802;4.336;2024-03-23T13:58:30;10.70;99.90
14471;DHT22;7321;50.802;4.336;2024-03-23T14:00:59;10.50;99.90
14471;DHT22;7321;50.802;4.336;2024-03-23T14:03:25;10.50;99.90
14471;DHT22;7321;50.802;4.336;2024-03-23T14:05:51;10.60;99.90
14471;DHT22;7321;50.802;4.336;2024-03-23T14:08:24;10.70;99.90
14471;DHT22;7321;50.802;4.336;2024-03-23T14:10:50;10.60;99.90
14471;DHT22;7321;50.802;4.336;2024-03-23T14:13:20;10.70;99.90
14471;DHT22;7321;50.802;4.336;2024-03-23T14:15:46;10.50;99.90
14471;DHT22;7321;50.802;4.336;2024-03-23T14:18:12;10.60;99.90
14471;DHT22;7321;50.802;4.336;2024-03-23T14:20:39;10.50;99.90
14471;DHT22;7321;50.802;4.336;2024-03-23T14:23:11;10.50;99.90
14471;DHT22;7321;50.802;4.336;2024-03-23T14:25:43;10.70;99.90
14471;DHT22;7321;50.802;4.336;2024-03-23T14:28:11;10.80;99.90
14471;DHT22;7321;50.802;4.336;2024-03-23T14:30:43;10.80;99.90
14471;DHT22;7321;50.802;4.336;2024-03-23T14:33:15;10.80;99.90
14471;DHT22;7321;50.802;4.336;2024-03-23T14:36:04;10.70;99.90
14471;DHT22;7321;50.802;4.336;2024-03-23T14:38:33;10.80;99.90
14471;DHT22;7321;50.802;4.336;2024-03-23T14:41:02;10.70;99.90
14471;DHT22;7321;50.802;4.336;2024-03-23T14:43:43;10.80;99.90
14471;DHT22;7321;50.802;4.336;2024-03-23T14:46:20;10.90;99.90
14471;DHT22;7321;50.802;4.336;2024-03-23T14:48:52;10.70;99.90
14471;DHT22;7321;50.802;4.336;2024-03-23T14:51:37;10.70;99.90
14471;DHT22;7321;50.802;4.336;2024-03-23T14:54:09;10.60;99.90
14471;DHT22;7321;50.802;4.336;2024-03-23T14:56:46;10.60;99.90
14471;DHT22;7321;50.802;4.336;2024-03-23T14:59:16;10.70;99.90
14471;DHT22;7321;50.802;4.336;2024-03-23T15:01:47;10.80;99.90
14471;DHT22;7321;50.802;4.336;2024-03-23T15:04:22;10.80;99.90
14471;DHT22;7321;50.802;4.336;2024-03-23T15:06:54;10.70;99.90
14471;DHT22;7321;50.802;4.336;2024-03-23T15:09:32;10.70;99.90
14471;DHT22;7321;50.802;4.336;2024-03-23T15:12:07;10.90;99.90
14471;DHT22;7321;50.802;4.336;2024-03-23T15:14:54;10.80;99.90
14471;DHT22;7321;50.802;4.336;2024-03-23T15:17:48;10.60;99.90
14471;DHT22;7321;50.802;4.336;2024-03-23T15:20:20;10.90;99.90
14471;DHT22;7321;50.802;4.336;2024-03-23T15:22:58;11.00;99.90
14471;DHT22;7321;50.802;4.336;2024-03-23T15:25:36;10.70;99.90
14471;DHT22;7321;50.802;4.336;2024-03-23T15:28:18;10.70;99.90
14471;DHT22;7321;50.802;4.336;2024-03-23T15:30:48;10.70;99.90
14471;DHT22;7321;50.802;4.336;2024-03-23T15:36:18;10.50;99.90
14471;DHT22;7321;50.802;4.336;2024-03-23T15:39:27;10.50;99.90
14471;DHT22;7321;50.802;4.336;2024-03-23T15:42:02;10.70;99.90
14471;DHT22;7321;50.802;4.336;2024-03-23T15:44:42;11.00;99.90
14471;DHT22;7321;50.802;4.336;2024-03-23T15:47:08;11.30;99.90
14471;DHT22;7321;50.802;4.336;2024-03-23T15:49:54;11.30;99.90
14471;DHT22;7321;50.802;4.336;2024-03-23T15:59:07;11.20;99.90
14471;DHT22;7321;50.802;4.336;2024-03-23T16:04:31;11.60;99.90
14471;DHT22;7321;50.802;4.336;2024-03-23T16:06:57;12.00;99.90
14471;DHT22;7321;50.802;4.336;2024-03-23T16:09:31;11.90;99.90
14471;DHT22;7321;50.802;4.336;2024-03-23T16:12:00;11.60;99.90
14471;DHT22;7321;50.802;4.336;2024-03-23T16:14:26;11.30;99.90
14471;DHT22;7321;50.802;4.336;2024-03-23T16:16:54;11.20;99.90
14471;DHT22;7321;50.802;4.336;2024-03-23T16:19:23;11.00;99.90
14471;DHT22;7321;50.802;4.336;2024-03-23T16:21:49;10.90;99.90
14471;DHT22;7321;50.802;4.336;2024-03-23T16:24:15;10.80;99.90
14471;DHT22;7321;50.802;4.336;2024-03-23T16:26:41;10.80;99.90
14471;DHT22;7321;50.802;4.336;2024-03-23T16:29:06;10.70;99.90
14471;DHT22;7321;50.802;4.336;2024-03-23T16:31:34;10.70;99.90
14471;DHT22;7321;50.802;4.336;2024-03-23T16:34:00;10.70;99.90
14471;DHT22;7321;50.802;4.336;2024-03-23T16:36:27;10.70;99.90
14471;DHT22;7321;50.802;4.336;2024-03-23T16:38:53;10.50;99.90
14471;DHT22;7321;50.802;4.336;2024-03-23T16:41:20;10.60;99.90
14471;DHT22;7321;50.802;4.336;2024-03-23T16:43:46;10.60;99.90
14471;DHT22;7321;50.802;4.336;2024-03-23T16:46:13;10.70;99.90
14471;DHT22;7321;50.802;4.336;2024-03-23T16:48:42;10.70;99.90
14471;DHT22;7321;50.802;4.336;2024-03-23T16:51:09;10.90;99.90
14471;DHT22;7321;50.802;4.336;2024-03-23T16:53:36;10.80;99.90
14471;DHT22;7321;50.802;4.336;2024-03-23T16:56:07;10.70;99.90
14471;DHT22;7321;50.802;4.336;2024-03-23T16:58:37;10.80;99.90
14471;DHT22;7321;50.802;4.336;2024-03-23T17:01:06;10.70;99.90
14471;DHT22;7321;50.802;4.336;2024-03-23T17:03:35;10.70;99.90
14471;DHT22;7321;50.802;4.336;2024-03-23T17:06:08;10.60;99.90
14471;DHT22;7321;50.802;4.336;2024-03-23T17:08:37;10.50;99.90
14471;DHT22;7321;50.802;4.336;2024-03-23T17:11:04;10.60;99.90
14471;DHT22;7321;50.802;4.336;2024-03-23T17:13:37;10.60;99.90